Heselton, Kentucky
Current Conditions -  °F | °C
As of 11:35 PM on Monday 20 Oct 2014 (Local Time) from KFGX Reporting Station
Scattered Clouds Scattered Clouds  
Wind Chill: 53°   Ceiling: Unl
Heat Index: 53°   Visibility: 10mi
Dew Point: 48°   Wind: 8mph
Humidity: 85%   Direction: 230°SW
Pressure: 29.93"   Gusts: NA
Location:  38.4929°N, 83.3898°W
Report Text: KFGX 210335Z AUTO 23007KT 10SM SCT044 SCT070 11/09 A2993 RMK AO2 T01140090
Loading
Personal Weather Stations






























Interactive Weather Map
Tropical Storm Tracking
New forecast layout! Learn more

10-Day Weather Forecast

Advertisements
Track Severe Weather on mobile